sensor_id;sensor_type;location;lat;lon;timestamp;P1;durP1;ratioP1;P2;durP2;ratioP2
11024;SDS011;22890;51.820;8.682;2024-03-07T00:00:09;21.90;;;13.73;;
11024;SDS011;22890;51.820;8.682;2024-03-07T00:02:45;22.07;;;13.67;;
11024;SDS011;22890;51.820;8.682;2024-03-07T00:05:17;24.10;;;12.63;;
11024;SDS011;22890;51.820;8.682;2024-03-07T00:07:45;23.40;;;13.27;;
11024;SDS011;22890;51.820;8.682;2024-03-07T00:10:12;24.40;;;14.07;;
11024;SDS011;22890;51.820;8.682;2024-03-07T00:12:42;24.23;;;14.60;;
11024;SDS011;22890;51.820;8.682;2024-03-07T00:15:10;21.57;;;12.70;;
11024;SDS011;22890;51.820;8.682;2024-03-07T00:17:38;23.83;;;14.80;;
11024;SDS011;22890;51.820;8.682;2024-03-07T00:20:05;20.13;;;12.53;;
11024;SDS011;22890;51.820;8.682;2024-03-07T00:22:40;22.07;;;13.30;;
11024;SDS011;22890;51.820;8.682;2024-03-07T00:25:07;21.83;;;13.17;;
11024;SDS011;22890;51.820;8.682;2024-03-07T00:27:35;21.10;;;12.57;;
11024;SDS011;22890;51.820;8.682;2024-03-07T00:30:03;29.10;;;13.97;;
11024;SDS011;22890;51.820;8.682;2024-03-07T00:32:35;26.50;;;13.20;;
11024;SDS011;22890;51.820;8.682;2024-03-07T00:35:06;19.47;;;12.70;;
11024;SDS011;22890;51.820;8.682;2024-03-07T00:37:35;21.90;;;12.73;;
11024;SDS011;22890;51.820;8.682;2024-03-07T00:40:02;19.00;;;11.80;;
11024;SDS011;22890;51.820;8.682;2024-03-07T00:42:29;22.77;;;12.57;;
11024;SDS011;22890;51.820;8.682;2024-03-07T00:44:56;22.57;;;13.83;;
11024;SDS011;22890;51.820;8.682;2024-03-07T00:47:24;25.70;;;13.47;;
11024;SDS011;22890;51.820;8.682;2024-03-07T00:49:51;22.07;;;12.30;;
11024;SDS011;22890;51.820;8.682;2024-03-07T00:52:17;18.37;;;11.90;;
11024;SDS011;22890;51.820;8.682;2024-03-07T00:54:44;17.83;;;11.10;;
11024;SDS011;22890;51.820;8.682;2024-03-07T00:57:11;18.10;;;10.97;;
11024;SDS011;22890;51.820;8.682;2024-03-07T00:59:37;21.50;;;12.13;;
11024;SDS011;22890;51.820;8.682;2024-03-07T01:02:05;20.03;;;12.27;;
11024;SDS011;22890;51.820;8.682;2024-03-07T01:04:33;20.53;;;11.53;;
11024;SDS011;22890;51.820;8.682;2024-03-07T01:07:00;22.37;;;12.60;;
11024;SDS011;22890;51.820;8.682;2024-03-07T01:09:27;17.60;;;11.70;;
11024;SDS011;22890;51.820;8.682;2024-03-07T01:11:55;22.00;;;11.83;;
11024;SDS011;22890;51.820;8.682;2024-03-07T01:14:23;18.93;;;12.17;;
11024;SDS011;22890;51.820;8.682;2024-03-07T01:16:50;18.40;;;11.83;;
11024;SDS011;22890;51.820;8.682;2024-03-07T01:19:17;22.07;;;11.60;;
11024;SDS011;22890;51.820;8.682;2024-03-07T01:21:43;17.50;;;11.23;;
11024;SDS011;22890;51.820;8.682;2024-03-07T01:24:11;21.57;;;12.00;;
11024;SDS011;22890;51.820;8.682;2024-03-07T01:26:38;24.50;;;13.43;;
11024;SDS011;22890;51.820;8.682;2024-03-07T01:29:05;21.60;;;11.77;;
11024;SDS011;22890;51.820;8.682;2024-03-07T01:31:33;22.80;;;11.93;;
11024;SDS011;22890;51.820;8.682;2024-03-07T01:34:00;18.23;;;11.43;;
11024;SDS011;22890;51.820;8.682;2024-03-07T01:36:27;20.17;;;12.83;;
11024;SDS011;22890;51.820;8.682;2024-03-07T01:38:54;19.87;;;11.67;;
11024;SDS011;22890;51.820;8.682;2024-03-07T01:41:22;18.03;;;11.60;;
11024;SDS011;22890;51.820;8.682;2024-03-07T01:43:48;21.87;;;12.50;;
11024;SDS011;22890;51.820;8.682;2024-03-07T01:46:16;18.30;;;11.93;;
11024;SDS011;22890;51.820;8.682;2024-03-07T01:48:42;23.83;;;12.23;;
11024;SDS011;22890;51.820;8.682;2024-03-07T01:51:10;18.53;;;11.20;;
11024;SDS011;22890;51.820;8.682;2024-03-07T01:53:37;19.20;;;12.37;;
11024;SDS011;22890;51.820;8.682;2024-03-07T01:56:04;23.23;;;12.73;;
11024;SDS011;22890;51.820;8.682;2024-03-07T01:58:31;21.83;;;13.43;;
11024;SDS011;22890;51.820;8.682;2024-03-07T02:00:59;21.97;;;12.27;;
11024;SDS011;22890;51.820;8.682;2024-03-07T02:03:27;18.93;;;12.53;;
11024;SDS011;22890;51.820;8.682;2024-03-07T02:05:55;18.77;;;12.37;;
11024;SDS011;22890;51.820;8.682;2024-03-07T02:08:22;21.67;;;12.93;;
11024;SDS011;22890;51.820;8.682;2024-03-07T02:10:50;24.77;;;13.27;;
11024;SDS011;22890;51.820;8.682;2024-03-07T02:13:16;23.87;;;13.13;;
11024;SDS011;22890;51.820;8.682;2024-03-07T02:15:43;19.60;;;12.53;;
11024;SDS011;22890;51.820;8.682;2024-03-07T02:18:10;22.20;;;13.20;;
11024;SDS011;22890;51.820;8.682;2024-03-07T02:20:42;23.13;;;13.27;;
11024;SDS011;22890;51.820;8.682;2024-03-07T02:23:10;20.90;;;12.50;;
11024;SDS011;22890;51.820;8.682;2024-03-07T02:25:37;23.97;;;13.60;;
11024;SDS011;22890;51.820;8.682;2024-03-07T02:28:04;24.43;;;13.57;;
11024;SDS011;22890;51.820;8.682;2024-03-07T02:30:31;20.33;;;12.00;;
11024;SDS011;22890;51.820;8.682;2024-03-07T02:32:59;21.17;;;12.27;;
11024;SDS011;22890;51.820;8.682;2024-03-07T02:35:33;21.67;;;12.90;;
11024;SDS011;22890;51.820;8.682;2024-03-07T02:38:03;19.53;;;12.07;;
11024;SDS011;22890;51.820;8.682;2024-03-07T02:40:31;25.33;;;13.23;;
11024;SDS011;22890;51.820;8.682;2024-03-07T02:42:58;19.97;;;12.67;;
11024;SDS011;22890;51.820;8.682;2024-03-07T02:45:25;22.23;;;11.93;;
11024;SDS011;22890;51.820;8.682;2024-03-07T02:47:53;21.80;;;12.80;;
11024;SDS011;22890;51.820;8.682;2024-03-07T02:50:20;24.57;;;11.33;;
11024;SDS011;22890;51.820;8.682;2024-03-07T02:52:51;22.63;;;12.10;;
11024;SDS011;22890;51.820;8.682;2024-03-07T02:55:19;18.10;;;11.10;;
11024;SDS011;22890;51.820;8.682;2024-03-07T02:57:46;19.97;;;11.97;;
11024;SDS011;22890;51.820;8.682;2024-03-07T03:00:13;23.90;;;12.63;;
11024;SDS011;22890;51.820;8.682;2024-03-07T03:02:52;21.03;;;12.20;;
11024;SDS011;22890;51.820;8.682;2024-03-07T03:05:20;20.43;;;12.03;;
11024;SDS011;22890;51.820;8.682;2024-03-07T03:07:47;24.33;;;13.20;;
11024;SDS011;22890;51.820;8.682;2024-03-07T03:10:21;21.27;;;12.27;;
11024;SDS011;22890;51.820;8.682;2024-03-07T03:12:59;21.27;;;11.80;;
11024;SDS011;22890;51.820;8.682;2024-03-07T03:15:27;21.63;;;12.60;;
11024;SDS011;22890;51.820;8.682;2024-03-07T03:17:54;20.67;;;11.40;;
11024;SDS011;22890;51.820;8.682;2024-03-07T03:20:23;22.07;;;12.50;;
11024;SDS011;22890;51.820;8.682;2024-03-07T03:22:54;19.40;;;12.50;;
11024;SDS011;22890;51.820;8.682;2024-03-07T03:25:40;22.07;;;12.87;;
11024;SDS011;22890;51.820;8.682;2024-03-07T03:28:08;19.30;;;11.60;;
11024;SDS011;22890;51.820;8.682;2024-03-07T03:30:39;21.93;;;12.53;;
11024;SDS011;22890;51.820;8.682;2024-03-07T03:33:07;27.10;;;12.93;;
11024;SDS011;22890;51.820;8.682;2024-03-07T03:35:35;18.83;;;11.93;;
11024;SDS011;22890;51.820;8.682;2024-03-07T03:38:06;21.23;;;11.20;;
11024;SDS011;22890;51.820;8.682;2024-03-07T03:40:33;22.90;;;12.27;;
11024;SDS011;22890;51.820;8.682;2024-03-07T03:43:00;23.03;;;12.00;;
11024;SDS011;22890;51.820;8.682;2024-03-07T03:45:28;22.10;;;12.37;;
11024;SDS011;22890;51.820;8.682;2024-03-07T03:47:54;21.17;;;11.07;;
11024;SDS011;22890;51.820;8.682;2024-03-07T03:50:22;19.03;;;11.60;;
11024;SDS011;22890;51.820;8.682;2024-03-07T03:52:52;20.33;;;11.10;;
11024;SDS011;22890;51.820;8.682;2024-03-07T03:55:19;19.37;;;11.33;;
11024;SDS011;22890;51.820;8.682;2024-03-07T03:57:47;19.17;;;11.60;;
11024;SDS011;22890;51.820;8.682;2024-03-07T04:00:13;21.10;;;12.17;;
11024;SDS011;22890;51.820;8.682;2024-03-07T04:02:44;21.80;;;13.00;;
11024;SDS011;22890;51.820;8.682;2024-03-07T04:05:15;19.60;;;11.40;;
11024;SDS011;22890;51.820;8.682;2024-03-07T04:07:43;20.23;;;11.50;;
11024;SDS011;22890;51.820;8.682;2024-03-07T04:10:11;24.23;;;11.97;;
11024;SDS011;22890;51.820;8.682;2024-03-07T04:12:39;22.80;;;12.60;;
11024;SDS011;22890;51.820;8.682;2024-03-07T04:15:11;21.17;;;12.43;;
11024;SDS011;22890;51.820;8.682;2024-03-07T04:17:39;21.73;;;11.23;;
11024;SDS011;22890;51.820;8.682;2024-03-07T04:20:07;27.30;;;11.90;;
11024;SDS011;22890;51.820;8.682;2024-03-07T04:22:37;18.30;;;11.93;;
11024;SDS011;22890;51.820;8.682;2024-03-07T04:25:05;22.10;;;12.20;;
11024;SDS011;22890;51.820;8.682;2024-03-07T04:27:33;25.60;;;13.33;;
11024;SDS011;22890;51.820;8.682;2024-03-07T04:30:03;23.90;;;12.83;;
11024;SDS011;22890;51.820;8.682;2024-03-07T04:32:30;21.43;;;12.47;;
11024;SDS011;22890;51.820;8.682;2024-03-07T04:34:58;23.80;;;13.20;;
11024;SDS011;22890;51.820;8.682;2024-03-07T04:37:26;22.70;;;12.57;;
11024;SDS011;22890;51.820;8.682;2024-03-07T04:39:53;23.67;;;12.80;;
11024;SDS011;22890;51.820;8.682;2024-03-07T04:42:20;23.03;;;12.57;;
11024;SDS011;22890;51.820;8.682;2024-03-07T04:44:47;26.63;;;11.73;;
11024;SDS011;22890;51.820;8.682;2024-03-07T04:47:15;24.73;;;12.70;;
11024;SDS011;22890;51.820;8.682;2024-03-07T04:49:42;20.93;;;12.10;;
11024;SDS011;22890;51.820;8.682;2024-03-07T04:52:09;21.67;;;12.97;;
11024;SDS011;22890;51.820;8.682;2024-03-07T04:54:36;20.53;;;12.60;;
11024;SDS011;22890;51.820;8.682;2024-03-07T04:57:03;25.67;;;12.80;;
11024;SDS011;22890;51.820;8.682;2024-03-07T04:59:32;22.10;;;12.10;;
11024;SDS011;22890;51.820;8.682;2024-03-07T05:01:59;26.40;;;13.30;;
11024;SDS011;22890;51.820;8.682;2024-03-07T05:04:26;21.83;;;12.77;;
11024;SDS011;22890;51.820;8.682;2024-03-07T05:06:55;23.87;;;12.70;;
11024;SDS011;22890;51.820;8.682;2024-03-07T05:09:24;20.80;;;12.67;;
11024;SDS011;22890;51.820;8.682;2024-03-07T05:11:55;23.23;;;13.53;;
11024;SDS011;22890;51.820;8.682;2024-03-07T05:14:21;27.37;;;14.00;;
11024;SDS011;22890;51.820;8.682;2024-03-07T05:16:49;23.77;;;14.20;;
11024;SDS011;22890;51.820;8.682;2024-03-07T05:19:32;25.30;;;13.77;;
11024;SDS011;22890;51.820;8.682;2024-03-07T05:21:59;25.87;;;14.40;;
11024;SDS011;22890;51.820;8.682;2024-03-07T05:24:26;23.27;;;13.93;;
11024;SDS011;22890;51.820;8.682;2024-03-07T05:26:54;24.40;;;13.73;;
11024;SDS011;22890;51.820;8.682;2024-03-07T05:29:21;20.53;;;12.27;;
11024;SDS011;22890;51.820;8.682;2024-03-07T05:31:48;21.10;;;13.37;;
11024;SDS011;22890;51.820;8.682;2024-03-07T05:34:15;25.83;;;12.97;;
11024;SDS011;22890;51.820;8.682;2024-03-07T05:36:45;26.93;;;13.13;;
11024;SDS011;22890;51.820;8.682;2024-03-07T05:39:14;24.13;;;12.73;;
11024;SDS011;22890;51.820;8.682;2024-03-07T05:41:42;27.07;;;14.03;;
11024;SDS011;22890;51.820;8.682;2024-03-07T05:44:14;26.63;;;14.30;;
11024;SDS011;22890;51.820;8.682;2024-03-07T05:46:42;26.03;;;13.97;;
11024;SDS011;22890;51.820;8.682;2024-03-07T05:49:15;27.43;;;14.30;;
11024;SDS011;22890;51.820;8.682;2024-03-07T05:51:49;23.23;;;13.57;;
11024;SDS011;22890;51.820;8.682;2024-03-07T05:54:16;26.03;;;13.43;;
11024;SDS011;22890;51.820;8.682;2024-03-07T05:56:43;27.00;;;13.83;;
11024;SDS011;22890;51.820;8.682;2024-03-07T05:59:10;23.33;;;13.23;;
11024;SDS011;22890;51.820;8.682;2024-03-07T06:01:37;29.87;;;14.30;;
11024;SDS011;22890;51.820;8.682;2024-03-07T06:04:05;29.53;;;13.97;;
11024;SDS011;22890;51.820;8.682;2024-03-07T06:06:33;27.20;;;13.67;;
11024;SDS011;22890;51.820;8.682;2024-03-07T06:09:02;25.43;;;13.47;;
11024;SDS011;22890;51.820;8.682;2024-03-07T06:11:37;27.53;;;14.67;;
11024;SDS011;22890;51.820;8.682;2024-03-07T06:14:05;28.20;;;13.67;;
11024;SDS011;22890;51.820;8.682;2024-03-07T06:16:33;27.57;;;14.07;;
11024;SDS011;22890;51.820;8.682;2024-03-07T06:19:02;30.67;;;15.70;;
11024;SDS011;22890;51.820;8.682;2024-03-07T06:21:32;22.87;;;13.77;;
11024;SDS011;22890;51.820;8.682;2024-03-07T06:23:59;26.47;;;14.87;;
11024;SDS011;22890;51.820;8.682;2024-03-07T06:26:30;24.67;;;14.50;;
11024;SDS011;22890;51.820;8.682;2024-03-07T06:29:07;29.50;;;16.23;;
11024;SDS011;22890;51.820;8.682;2024-03-07T06:31:37;25.73;;;14.43;;
11024;SDS011;22890;51.820;8.682;2024-03-07T06:34:04;30.67;;;15.60;;
11024;SDS011;22890;51.820;8.682;2024-03-07T06:36:31;32.90;;;15.57;;
11024;SDS011;22890;51.820;8.682;2024-03-07T06:38:59;29.57;;;15.10;;
11024;SDS011;22890;51.820;8.682;2024-03-07T06:41:25;27.77;;;14.27;;
11024;SDS011;22890;51.820;8.682;2024-03-07T06:43:52;24.73;;;14.73;;
11024;SDS011;22890;51.820;8.682;2024-03-07T06:46:21;30.27;;;14.83;;
11024;SDS011;22890;51.820;8.682;2024-03-07T06:48:48;24.07;;;14.70;;
11024;SDS011;22890;51.820;8.682;2024-03-07T06:51:15;28.63;;;13.90;;
11024;SDS011;22890;51.820;8.682;2024-03-07T06:53:44;28.53;;;14.97;;
11024;SDS011;22890;51.820;8.682;2024-03-07T06:56:14;27.03;;;15.07;;
11024;SDS011;22890;51.820;8.682;2024-03-07T06:58:43;28.33;;;15.80;;
11024;SDS011;22890;51.820;8.682;2024-03-07T07:01:14;27.30;;;14.90;;
11024;SDS011;22890;51.820;8.682;2024-03-07T07:03:42;27.37;;;15.27;;
11024;SDS011;22890;51.820;8.682;2024-03-07T07:06:10;26.40;;;13.57;;
11024;SDS011;22890;51.820;8.682;2024-03-07T07:08:38;24.90;;;14.60;;
11024;SDS011;22890;51.820;8.682;2024-03-07T07:11:05;26.40;;;14.70;;
11024;SDS011;22890;51.820;8.682;2024-03-07T07:13:32;25.00;;;14.40;;
11024;SDS011;22890;51.820;8.682;2024-03-07T07:15:59;28.77;;;14.70;;
11024;SDS011;22890;51.820;8.682;2024-03-07T07:18:27;28.73;;;15.27;;
11024;SDS011;22890;51.820;8.682;2024-03-07T07:20:54;23.73;;;13.43;;
11024;SDS011;22890;51.820;8.682;2024-03-07T07:23:23;26.53;;;14.83;;
11024;SDS011;22890;51.820;8.682;2024-03-07T07:25:50;24.87;;;13.77;;
11024;SDS011;22890;51.820;8.682;2024-03-07T07:28:17;25.67;;;14.37;;
11024;SDS011;22890;51.820;8.682;2024-03-07T07:30:44;27.33;;;14.10;;
11024;SDS011;22890;51.820;8.682;2024-03-07T07:33:12;28.17;;;14.60;;
11024;SDS011;22890;51.820;8.682;2024-03-07T07:35:40;25.30;;;14.23;;
11024;SDS011;22890;51.820;8.682;2024-03-07T07:38:07;26.57;;;14.00;;
11024;SDS011;22890;51.820;8.682;2024-03-07T07:40:37;26.63;;;14.70;;
11024;SDS011;22890;51.820;8.682;2024-03-07T07:43:05;28.00;;;15.23;;
11024;SDS011;22890;51.820;8.682;2024-03-07T07:45:32;25.63;;;15.00;;
11024;SDS011;22890;51.820;8.682;2024-03-07T07:48:02;24.53;;;15.33;;
11024;SDS011;22890;51.820;8.682;2024-03-07T07:50:29;26.03;;;15.20;;
11024;SDS011;22890;51.820;8.682;2024-03-07T07:52:57;27.63;;;15.70;;
11024;SDS011;22890;51.820;8.682;2024-03-07T07:55:25;29.63;;;16.23;;
11024;SDS011;22890;51.820;8.682;2024-03-07T07:57:54;28.97;;;16.67;;
11024;SDS011;22890;51.820;8.682;2024-03-07T08:00:22;28.60;;;16.77;;
11024;SDS011;22890;51.820;8.682;2024-03-07T08:02:56;31.73;;;16.80;;
11024;SDS011;22890;51.820;8.682;2024-03-07T08:05:28;32.47;;;18.93;;
11024;SDS011;22890;51.820;8.682;2024-03-07T08:07:57;30.40;;;17.07;;
11024;SDS011;22890;51.820;8.682;2024-03-07T08:10:34;31.37;;;17.60;;
11024;SDS011;22890;51.820;8.682;2024-03-07T08:13:02;30.40;;;17.50;;
11024;SDS011;22890;51.820;8.682;2024-03-07T08:15:32;35.03;;;18.77;;
11024;SDS011;22890;51.820;8.682;2024-03-07T08:17:59;36.50;;;18.83;;
11024;SDS011;22890;51.820;8.682;2024-03-07T08:20:26;32.50;;;18.30;;
11024;SDS011;22890;51.820;8.682;2024-03-07T08:22:54;37.77;;;18.90;;
11024;SDS011;22890;51.820;8.682;2024-03-07T08:25:22;38.50;;;19.63;;
11024;SDS011;22890;51.820;8.682;2024-03-07T08:27:52;35.70;;;18.73;;
11024;SDS011;22890;51.820;8.682;2024-03-07T08:30:19;33.57;;;18.27;;
11024;SDS011;22890;51.820;8.682;2024-03-07T08:32:47;34.63;;;19.90;;
11024;SDS011;22890;51.820;8.682;2024-03-07T08:35:15;39.17;;;19.73;;
11024;SDS011;22890;51.820;8.682;2024-03-07T08:37:44;33.53;;;18.63;;
11024;SDS011;22890;51.820;8.682;2024-03-07T08:40:12;32.40;;;17.80;;
11024;SDS011;22890;51.820;8.682;2024-03-07T08:43:03;34.80;;;17.93;;
11024;SDS011;22890;51.820;8.682;2024-03-07T08:45:30;32.97;;;17.90;;
11024;SDS011;22890;51.820;8.682;2024-03-07T08:48:01;32.77;;;17.00;;
11024;SDS011;22890;51.820;8.682;2024-03-07T08:50:30;32.87;;;17.43;;
11024;SDS011;22890;51.820;8.682;2024-03-07T08:53:00;30.77;;;15.77;;
11024;SDS011;22890;51.820;8.682;2024-03-07T08:55:30;32.40;;;16.50;;
11024;SDS011;22890;51.820;8.682;2024-03-07T08:57:57;37.17;;;18.43;;
11024;SDS011;22890;51.820;8.682;2024-03-07T09:00:25;31.17;;;16.40;;
11024;SDS011;22890;51.820;8.682;2024-03-07T09:02:56;28.00;;;15.17;;
11024;SDS011;22890;51.820;8.682;2024-03-07T09:05:26;29.67;;;14.30;;
11024;SDS011;22890;51.820;8.682;2024-03-07T09:07:54;27.63;;;14.43;;
11024;SDS011;22890;51.820;8.682;2024-03-07T09:10:21;27.33;;;12.80;;
11024;SDS011;22890;51.820;8.682;2024-03-07T09:12:49;27.27;;;14.17;;
11024;SDS011;22890;51.820;8.682;2024-03-07T09:15:18;23.87;;;13.87;;
11024;SDS011;22890;51.820;8.682;2024-03-07T09:17:47;26.70;;;14.67;;
11024;SDS011;22890;51.820;8.682;2024-03-07T09:20:14;24.70;;;14.17;;
11024;SDS011;22890;51.820;8.682;2024-03-07T09:22:42;24.30;;;14.27;;
11024;SDS011;22890;51.820;8.682;2024-03-07T09:25:09;26.30;;;13.53;;
11024;SDS011;22890;51.820;8.682;2024-03-07T09:27:37;24.43;;;13.43;;
11024;SDS011;22890;51.820;8.682;2024-03-07T09:30:04;25.07;;;14.07;;
11024;SDS011;22890;51.820;8.682;2024-03-07T09:32:35;27.33;;;14.97;;
11024;SDS011;22890;51.820;8.682;2024-03-07T09:35:03;25.17;;;13.50;;
11024;SDS011;22890;51.820;8.682;2024-03-07T09:37:33;25.17;;;12.27;;
11024;SDS011;22890;51.820;8.682;2024-03-07T09:40:00;27.87;;;13.77;;
11024;SDS011;22890;51.820;8.682;2024-03-07T09:42:26;24.13;;;13.03;;
11024;SDS011;22890;51.820;8.682;2024-03-07T09:44:54;29.43;;;13.13;;
11024;SDS011;22890;51.820;8.682;2024-03-07T09:47:22;27.20;;;13.30;;
11024;SDS011;22890;51.820;8.682;2024-03-07T09:49:49;30.93;;;14.50;;
11024;SDS011;22890;51.820;8.682;2024-03-07T09:52:18;30.97;;;14.90;;
11024;SDS011;22890;51.820;8.682;2024-03-07T09:54:46;28.40;;;14.70;;
11024;SDS011;22890;51.820;8.682;2024-03-07T09:57:13;23.47;;;12.20;;
11024;SDS011;22890;51.820;8.682;2024-03-07T09:59:41;23.83;;;12.97;;
11024;SDS011;22890;51.820;8.682;2024-03-07T10:02:12;27.47;;;15.07;;
11024;SDS011;22890;51.820;8.682;2024-03-07T10:04:42;22.27;;;12.50;;
11024;SDS011;22890;51.820;8.682;2024-03-07T10:07:11;27.27;;;13.43;;
11024;SDS011;22890;51.820;8.682;2024-03-07T10:09:40;22.23;;;13.60;;
11024;SDS011;22890;51.820;8.682;2024-03-07T10:12:08;30.00;;;14.63;;
11024;SDS011;22890;51.820;8.682;2024-03-07T10:14:48;25.90;;;13.90;;
11024;SDS011;22890;51.820;8.682;2024-03-07T10:17:18;23.70;;;13.40;;
11024;SDS011;22890;51.820;8.682;2024-03-07T10:19:48;24.97;;;13.07;;
11024;SDS011;22890;51.820;8.682;2024-03-07T10:22:17;22.67;;;13.20;;
11024;SDS011;22890;51.820;8.682;2024-03-07T10:24:54;23.00;;;12.83;;
11024;SDS011;22890;51.820;8.682;2024-03-07T10:27:26;26.23;;;12.80;;
11024;SDS011;22890;51.820;8.682;2024-03-07T10:29:54;19.80;;;11.53;;
11024;SDS011;22890;51.820;8.682;2024-03-07T10:32:22;19.33;;;11.37;;
11024;SDS011;22890;51.820;8.682;2024-03-07T10:34:52;20.47;;;12.47;;
11024;SDS011;22890;51.820;8.682;2024-03-07T10:37:20;24.47;;;12.83;;
11024;SDS011;22890;51.820;8.682;2024-03-07T10:39:47;22.63;;;12.57;;
11024;SDS011;22890;51.820;8.682;2024-03-07T10:42:18;20.43;;;12.57;;
11024;SDS011;22890;51.820;8.682;2024-03-07T10:44:46;24.13;;;12.70;;
11024;SDS011;22890;51.820;8.682;2024-03-07T10:47:15;22.30;;;12.57;;
11024;SDS011;22890;51.820;8.682;2024-03-07T10:49:48;22.80;;;13.23;;
11024;SDS011;22890;51.820;8.682;2024-03-07T10:52:49;23.03;;;12.57;;
11024;SDS011;22890;51.820;8.682;2024-03-07T10:55:30;24.17;;;12.47;;
11024;SDS011;22890;51.820;8.682;2024-03-07T10:58:09;24.23;;;12.87;;
11024;SDS011;22890;51.820;8.682;2024-03-07T11:00:47;23.97;;;13.13;;
11024;SDS011;22890;51.820;8.682;2024-03-07T11:03:14;28.30;;;13.77;;
11024;SDS011;22890;51.820;8.682;2024-03-07T11:05:41;22.53;;;12.70;;
11024;SDS011;22890;51.820;8.682;2024-03-07T11:08:10;23.80;;;12.10;;
11024;SDS011;22890;51.820;8.682;2024-03-07T11:10:40;26.20;;;14.10;;
11024;SDS011;22890;51.820;8.682;2024-03-07T11:13:08;27.63;;;13.33;;
11024;SDS011;22890;51.820;8.682;2024-03-07T11:15:39;26.43;;;13.17;;
11024;SDS011;22890;51.820;8.682;2024-03-07T11:18:08;28.30;;;14.33;;
11024;SDS011;22890;51.820;8.682;2024-03-07T11:20:39;24.03;;;13.53;;
11024;SDS011;22890;51.820;8.682;2024-03-07T11:23:26;22.67;;;12.87;;
11024;SDS011;22890;51.820;8.682;2024-03-07T11:26:05;28.83;;;14.20;;
11024;SDS011;22890;51.820;8.682;2024-03-07T11:28:37;21.80;;;11.87;;
11024;SDS011;22890;51.820;8.682;2024-03-07T11:31:14;23.57;;;13.17;;
11024;SDS011;22890;51.820;8.682;2024-03-07T11:33:41;22.33;;;11.30;;
11024;SDS011;22890;51.820;8.682;2024-03-07T11:36:10;22.87;;;11.47;;
11024;SDS011;22890;51.820;8.682;2024-03-07T11:38:44;24.77;;;13.20;;
11024;SDS011;22890;51.820;8.682;2024-03-07T11:41:15;20.93;;;12.20;;
11024;SDS011;22890;51.820;8.682;2024-03-07T11:43:46;19.70;;;11.10;;
11024;SDS011;22890;51.820;8.682;2024-03-07T11:46:13;20.93;;;11.47;;
11024;SDS011;22890;51.820;8.682;2024-03-07T11:48:43;18.23;;;10.40;;
11024;SDS011;22890;51.820;8.682;2024-03-07T11:51:14;21.47;;;11.23;;
11024;SDS011;22890;51.820;8.682;2024-03-07T11:53:43;19.23;;;10.80;;
11024;SDS011;22890;51.820;8.682;2024-03-07T11:56:14;20.90;;;11.27;;
11024;SDS011;22890;51.820;8.682;2024-03-07T11:58:43;19.60;;;10.77;;
11024;SDS011;22890;51.820;8.682;2024-03-07T12:01:11;22.10;;;11.17;;
11024;SDS011;22890;51.820;8.682;2024-03-07T12:03:40;19.23;;;10.07;;
11024;SDS011;22890;51.820;8.682;2024-03-07T12:06:08;24.60;;;12.70;;
11024;SDS011;22890;51.820;8.682;2024-03-07T12:08:39;19.33;;;11.73;;
11024;SDS011;22890;51.820;8.682;2024-03-07T12:11:08;24.27;;;13.63;;
11024;SDS011;22890;51.820;8.682;2024-03-07T12:13:39;21.33;;;11.33;;
11024;SDS011;22890;51.820;8.682;2024-03-07T12:16:06;22.37;;;12.03;;
11024;SDS011;22890;51.820;8.682;2024-03-07T12:18:34;22.03;;;11.17;;
11024;SDS011;22890;51.820;8.682;2024-03-07T12:21:02;24.53;;;12.50;;
11024;SDS011;22890;51.820;8.682;2024-03-07T12:23:33;24.83;;;12.67;;
11024;SDS011;22890;51.820;8.682;2024-03-07T12:26:00;31.00;;;13.37;;
11024;SDS011;22890;51.820;8.682;2024-03-07T12:28:31;23.43;;;12.33;;
11024;SDS011;22890;51.820;8.682;2024-03-07T12:31:02;21.33;;;11.97;;
11024;SDS011;22890;51.820;8.682;2024-03-07T12:33:30;20.73;;;10.77;;
11024;SDS011;22890;51.820;8.682;2024-03-07T12:36:01;24.63;;;12.50;;
11024;SDS011;22890;51.820;8.682;2024-03-07T12:38:36;25.83;;;12.03;;
11024;SDS011;22890;51.820;8.682;2024-03-07T12:41:04;21.90;;;11.90;;
11024;SDS011;22890;51.820;8.682;2024-03-07T12:43:40;17.93;;;8.97;;
11024;SDS011;22890;51.820;8.682;2024-03-07T12:46:10;21.60;;;10.57;;
11024;SDS011;22890;51.820;8.682;2024-03-07T12:48:41;18.03;;;9.90;;
11024;SDS011;22890;51.820;8.682;2024-03-07T12:51:11;21.70;;;10.70;;
11024;SDS011;22890;51.820;8.682;2024-03-07T12:53:44;21.43;;;11.07;;
11024;SDS011;22890;51.820;8.682;2024-03-07T12:56:12;20.53;;;10.93;;
11024;SDS011;22890;51.820;8.682;2024-03-07T12:58:43;23.93;;;12.33;;
11024;SDS011;22890;51.820;8.682;2024-03-07T13:01:13;19.70;;;10.40;;
11024;SDS011;22890;51.820;8.682;2024-03-07T13:03:40;22.27;;;10.67;;
11024;SDS011;22890;51.820;8.682;2024-03-07T13:06:08;20.87;;;12.20;;
11024;SDS011;22890;51.820;8.682;2024-03-07T13:08:37;24.47;;;11.50;;
11024;SDS011;22890;51.820;8.682;2024-03-07T13:11:04;26.77;;;12.83;;
11024;SDS011;22890;51.820;8.682;2024-03-07T13:13:32;25.00;;;11.27;;
11024;SDS011;22890;51.820;8.682;2024-03-07T13:15:58;25.50;;;11.60;;
11024;SDS011;22890;51.820;8.682;2024-03-07T13:18:25;21.70;;;10.67;;
11024;SDS011;22890;51.820;8.682;2024-03-07T13:20:52;20.80;;;10.30;;
11024;SDS011;22890;51.820;8.682;2024-03-07T13:23:19;23.03;;;13.43;;
11024;SDS011;22890;51.820;8.682;2024-03-07T13:25:46;25.93;;;11.63;;
11024;SDS011;22890;51.820;8.682;2024-03-07T13:28:15;23.60;;;11.83;;
11024;SDS011;22890;51.820;8.682;2024-03-07T13:30:50;19.93;;;11.03;;
11024;SDS011;22890;51.820;8.682;2024-03-07T13:33:20;25.27;;;12.10;;
11024;SDS011;22890;51.820;8.682;2024-03-07T13:35:47;23.60;;;11.50;;
11024;SDS011;22890;51.820;8.682;2024-03-07T13:38:14;23.03;;;11.67;;
11024;SDS011;22890;51.820;8.682;2024-03-07T13:40:41;25.70;;;11.60;;
11024;SDS011;22890;51.820;8.682;2024-03-07T13:43:08;19.57;;;12.33;;
11024;SDS011;22890;51.820;8.682;2024-03-07T13:45:36;28.07;;;11.60;;
11024;SDS011;22890;51.820;8.682;2024-03-07T13:48:06;21.20;;;10.83;;
11024;SDS011;22890;51.820;8.682;2024-03-07T13:50:34;23.03;;;11.77;;
11024;SDS011;22890;51.820;8.682;2024-03-07T13:53:22;25.00;;;12.53;;
11024;SDS011;22890;51.820;8.682;2024-03-07T13:56:06;23.20;;;11.97;;
11024;SDS011;22890;51.820;8.682;2024-03-07T14:02:19;22.20;;;10.90;;
11024;SDS011;22890;51.820;8.682;2024-03-07T14:05:13;22.43;;;12.00;;
11024;SDS011;22890;51.820;8.682;2024-03-07T14:08:20;24.33;;;11.00;;
11024;SDS011;22890;51.820;8.682;2024-03-07T14:11:11;24.50;;;12.80;;
11024;SDS011;22890;51.820;8.682;2024-03-07T14:16:59;24.93;;;12.23;;
11024;SDS011;22890;51.820;8.682;2024-03-07T14:19:45;26.90;;;13.37;;
11024;SDS011;22890;51.820;8.682;2024-03-07T14:23:04;30.83;;;13.90;;
11024;SDS011;22890;51.820;8.682;2024-03-07T14:25:44;26.60;;;13.50;;
11024;SDS011;22890;51.820;8.682;2024-03-07T14:31:07;31.90;;;13.63;;
11024;SDS011;22890;51.820;8.682;2024-03-07T14:34:00;30.77;;;14.40;;
11024;SDS011;22890;51.820;8.682;2024-03-07T14:36:37;28.53;;;13.70;;
11024;SDS011;22890;51.820;8.682;2024-03-07T14:39:11;28.30;;;13.57;;
11024;SDS011;22890;51.820;8.682;2024-03-07T14:41:58;25.67;;;13.60;;
11024;SDS011;22890;51.820;8.682;2024-03-07T14:44:27;33.20;;;14.23;;